Terminal Aerodrome Forecast
Issued by NWS

Current Version | Previous Version | Text Only | Print | Product List | Glossary Off
Versions: 1 2 3 4 5 6 7 8 9 10 11 12 13 14 15 16 17 18 19 20 21 22 23

000
FTUS41 KPBZ 171700
TAFMGW
TAF
KMGW 171731Z 1718/1818 21004KT P6SM BKN015
     FM172100 24005KT P6SM BKN035
     FM180400 VRB03KT 4SM BR BKN015
     FM180700 VRB02KT 2SM BR BKN008
     FM181300 VRB04KT P6SM BKN040=

USA.gov is the U.S. government's official web portal to all federal, state and local government web resources and services.